createdAt,value
2023-02-20T00:01:49.266Z,10.90
2023-02-20T00:04:15.551Z,11.55
2023-02-20T00:06:43.224Z,11.75
2023-02-20T00:09:09.653Z,9.30
2023-02-20T00:11:35.925Z,13.80
2023-02-20T00:14:02.170Z,13.98
2023-02-20T00:16:28.387Z,14.07
2023-02-20T00:18:54.626Z,14.70
2023-02-20T00:21:20.935Z,13.68
2023-02-20T00:23:47.133Z,13.75
2023-02-20T00:26:14.924Z,15.98
2023-02-20T00:28:42.156Z,15.02
2023-02-20T00:31:11.510Z,17.17
2023-02-20T00:33:37.823Z,18.52
2023-02-20T00:36:04.437Z,17.85
2023-02-20T00:38:30.628Z,13.52
2023-02-20T00:40:57.082Z,15.32
2023-02-20T00:43:23.293Z,15.63
2023-02-20T00:45:49.540Z,17.25
2023-02-20T00:48:15.848Z,19.13
2023-02-20T00:50:42.094Z,17.80
2023-02-20T00:53:08.310Z,17.05
2023-02-20T00:55:34.537Z,13.68
2023-02-20T00:58:00.830Z,17.55
2023-02-20T01:00:28.472Z,18.10
2023-02-20T01:02:54.780Z,18.35
2023-02-20T01:05:21.515Z,14.85
2023-02-20T01:07:48.000Z,15.75
2023-02-20T01:10:14.612Z,16.45
2023-02-20T01:12:40.924Z,18.10
2023-02-20T01:15:07.930Z,17.42
2023-02-20T01:17:34.586Z,15.93
2023-02-20T01:20:00.819Z,18.98
2023-02-20T01:22:27.034Z,15.18
2023-02-20T01:24:53.232Z,16.95
2023-02-20T01:27:19.495Z,15.93
2023-02-20T01:29:45.787Z,17.13
2023-02-20T01:32:12.560Z,15.23
2023-02-20T01:34:38.979Z,16.95
2023-02-20T01:37:05.297Z,16.08
2023-02-20T01:39:31.506Z,17.15
2023-02-20T01:41:59.942Z,15.93
2023-02-20T01:44:27.848Z,15.02
2023-02-20T01:46:56.308Z,16.15
2023-02-20T01:49:28.966Z,15.10
2023-02-20T01:52:00.257Z,16.63
2023-02-20T01:54:26.963Z,15.98
2023-02-20T01:56:54.090Z,18.10
2023-02-20T01:59:21.757Z,15.70
2023-02-20T02:01:48.691Z,16.95
2023-02-20T02:04:15.074Z,19.45
2023-02-20T02:06:43.792Z,20.92
2023-02-20T02:09:23.575Z,18.48
2023-02-20T02:11:50.268Z,18.17
2023-02-20T02:14:16.458Z,21.85
2023-02-20T02:16:56.926Z,19.50
2023-02-20T02:19:41.732Z,20.00
2023-02-20T02:22:26.749Z,20.20
2023-02-20T02:25:07.266Z,20.17
2023-02-20T02:27:52.090Z,18.27
2023-02-20T02:30:21.331Z,17.70
2023-02-20T02:33:06.070Z,19.45
2023-02-20T02:35:41.766Z,18.00
2023-02-20T02:38:26.427Z,19.50
2023-02-20T02:40:57.512Z,20.50
2023-02-20T02:43:23.685Z,22.33
2023-02-20T02:45:57.244Z,18.88
2023-02-20T02:48:27.938Z,18.77
2023-02-20T02:50:56.708Z,19.05
2023-02-20T02:53:22.895Z,19.30
2023-02-20T02:55:49.130Z,19.50
2023-02-20T02:58:15.987Z,17.85
2023-02-20T03:00:47.776Z,20.73
2023-02-20T03:03:23.091Z,16.40
2023-02-20T03:05:52.481Z,15.65
2023-02-20T03:08:31.115Z,17.88
2023-02-20T03:11:08.468Z,14.88
2023-02-20T03:13:58.310Z,15.50
2023-02-20T03:16:27.843Z,15.70
2023-02-20T03:18:55.500Z,15.93
2023-02-20T03:21:22.380Z,14.88
2023-02-20T03:23:52.198Z,13.98
2023-02-20T03:26:22.350Z,13.25
2023-02-20T03:28:53.160Z,16.17
2023-02-20T03:31:21.431Z,16.38
2023-02-20T03:34:08.876Z,16.27
2023-02-20T03:36:56.829Z,13.45
2023-02-20T03:39:48.781Z,14.82
2023-02-20T03:42:34.864Z,11.80
2023-02-20T03:45:02.749Z,14.00
2023-02-20T03:47:29.548Z,12.60
2023-02-20T03:49:56.312Z,14.57
2023-02-20T03:52:23.403Z,15.75
2023-02-20T03:54:50.284Z,14.35
2023-02-20T03:57:18.957Z,16.77
2023-02-20T03:59:50.321Z,15.63
2023-02-20T04:02:20.250Z,15.05
2023-02-20T04:04:49.532Z,15.35
2023-02-20T04:07:18.196Z,14.55
2023-02-20T04:09:45.695Z,16.58
2023-02-20T04:12:16.494Z,14.35
2023-02-20T04:14:43.460Z,16.95
2023-02-20T04:17:11.805Z,15.65
2023-02-20T04:19:38.026Z,16.40
2023-02-20T04:22:06.775Z,17.85
2023-02-20T04:24:39.146Z,16.83
2023-02-20T04:27:05.377Z,13.80
2023-02-20T04:29:31.665Z,14.43
2023-02-20T04:31:57.962Z,13.65
2023-02-20T04:34:24.261Z,14.40
2023-02-20T04:36:53.141Z,16.60
2023-02-20T04:39:22.108Z,15.00
2023-02-20T04:41:48.304Z,14.98
2023-02-20T04:44:33.693Z,15.63
2023-02-20T04:47:01.089Z,16.15
2023-02-20T04:49:27.569Z,14.00
2023-02-20T04:51:54.162Z,14.50
2023-02-20T04:54:20.391Z,15.40
2023-02-20T04:56:46.685Z,13.65
2023-02-20T04:59:13.133Z,15.70
2023-02-20T05:01:39.437Z,14.90
2023-02-20T05:04:05.699Z,12.70
2023-02-20T05:06:31.894Z,15.35
2023-02-20T05:08:58.954Z,12.90
2023-02-20T05:11:25.219Z,15.07
2023-02-20T05:13:51.433Z,14.07
2023-02-20T05:16:17.678Z,13.68
2023-02-20T05:18:44.403Z,14.57
2023-02-20T05:21:32.014Z,13.05
2023-02-20T05:23:58.203Z,15.57
2023-02-20T05:26:24.511Z,16.02
2023-02-20T05:28:50.743Z,13.88
2023-02-20T05:31:18.021Z,16.02
2023-02-20T05:33:44.340Z,17.10
2023-02-20T05:36:10.756Z,15.82
2023-02-20T05:38:37.071Z,15.10
2023-02-20T05:41:03.286Z,13.80
2023-02-20T05:43:29.534Z,14.13
2023-02-20T05:45:55.729Z,16.10
2023-02-20T05:48:21.997Z,17.00
2023-02-20T05:50:50.417Z,13.52
2023-02-20T05:53:16.627Z,17.77
2023-02-20T05:55:42.862Z,14.55
2023-02-20T05:58:09.109Z,13.82
2023-02-20T06:00:35.358Z,14.48
2023-02-20T06:03:01.584Z,14.23
2023-02-20T06:05:28.245Z,12.93
2023-02-20T06:07:54.446Z,15.02
2023-02-20T06:10:20.792Z,17.17
2023-02-20T06:12:46.989Z,14.05
2023-02-20T06:15:13.186Z,19.40
2023-02-20T06:17:39.375Z,16.48
2023-02-20T06:20:05.817Z,17.60
2023-02-20T06:22:32.019Z,15.57
2023-02-20T06:24:58.268Z,15.77
2023-02-20T06:27:24.470Z,16.35
2023-02-20T06:29:50.734Z,13.63
2023-02-20T06:32:17.115Z,14.80
2023-02-20T06:34:43.870Z,13.43
2023-02-20T06:37:10.076Z,13.00
2023-02-20T06:39:36.346Z,15.60
2023-02-20T06:42:02.804Z,14.77
2023-02-20T06:44:29.165Z,13.65
2023-02-20T06:46:55.398Z,14.18
2023-02-20T06:49:21.687Z,13.35
2023-02-20T06:51:47.883Z,13.30
2023-02-20T06:54:14.194Z,16.20
2023-02-20T06:56:40.460Z,13.55
2023-02-20T06:59:06.973Z,12.93
2023-02-20T07:01:39.423Z,13.27
2023-02-20T07:04:05.673Z,12.50
2023-02-20T07:06:31.876Z,16.60
2023-02-20T07:08:58.141Z,12.50
2023-02-20T07:11:24.554Z,14.07
2023-02-20T07:13:50.964Z,15.40
2023-02-20T07:16:17.350Z,12.40
2023-02-20T07:18:43.783Z,17.77
2023-02-20T07:21:10.318Z,14.77
2023-02-20T07:23:36.571Z,13.93
2023-02-20T07:26:02.835Z,15.52
2023-02-20T07:28:29.189Z,12.35
2023-02-20T07:30:55.401Z,18.63
2023-02-20T07:33:21.602Z,12.65
2023-02-20T07:35:47.840Z,11.57
2023-02-20T07:38:14.067Z,12.63
2023-02-20T07:40:40.510Z,14.23
2023-02-20T07:43:06.848Z,16.77
2023-02-20T07:45:33.085Z,14.80
2023-02-20T07:47:59.310Z,13.73
2023-02-20T07:50:25.593Z,16.35
2023-02-20T07:52:51.853Z,10.82
2023-02-20T07:55:18.905Z,12.25
2023-02-20T07:57:50.090Z,12.65
2023-02-20T08:00:17.013Z,10.75
2023-02-20T08:02:43.216Z,10.30
2023-02-20T08:05:10.407Z,10.75
2023-02-20T08:07:36.747Z,9.25
2023-02-20T08:10:04.042Z,9.88
2023-02-20T08:12:30.282Z,8.60
2023-02-20T08:14:56.505Z,8.70
2023-02-20T08:17:22.705Z,10.55
2023-02-20T08:19:48.915Z,13.60
2023-02-20T08:22:15.133Z,12.63
2023-02-20T08:24:41.345Z,13.38
2023-02-20T08:27:07.536Z,14.63
2023-02-20T08:29:33.855Z,10.10
2023-02-20T08:32:00.087Z,12.93
2023-02-20T08:34:26.406Z,13.27
2023-02-20T08:36:52.639Z,10.52
2023-02-20T08:39:18.883Z,12.20
2023-02-20T08:41:45.877Z,14.77
2023-02-20T08:44:12.624Z,9.48
2023-02-20T08:46:45.549Z,12.02
2023-02-20T08:49:11.774Z,10.52
2023-02-20T08:51:38.034Z,11.43
2023-02-20T08:54:04.301Z,10.93
2023-02-20T08:56:30.522Z,15.80
2023-02-20T08:58:56.773Z,10.52
2023-02-20T09:01:23.052Z,9.13
2023-02-20T09:03:51.244Z,11.27
2023-02-20T09:06:17.552Z,10.30
2023-02-20T09:08:43.773Z,10.80
2023-02-20T09:11:11.911Z,10.93
2023-02-20T09:13:42.259Z,13.35
2023-02-20T09:16:08.506Z,13.48
2023-02-20T09:18:34.713Z,11.30
2023-02-20T09:21:00.924Z,11.32
2023-02-20T09:23:27.240Z,11.80
2023-02-20T09:25:53.858Z,16.30
2023-02-20T09:28:20.221Z,12.48
2023-02-20T09:30:46.451Z,12.38
2023-02-20T09:33:12.769Z,12.00
2023-02-20T09:35:38.986Z,13.60
2023-02-20T09:38:06.833Z,12.90
2023-02-20T09:40:33.078Z,12.75
2023-02-20T09:42:59.347Z,14.80
2023-02-20T09:45:26.948Z,15.65
2023-02-20T09:48:01.323Z,13.85
2023-02-20T09:50:47.798Z,15.43
2023-02-20T09:53:22.942Z,14.88
2023-02-20T09:55:49.489Z,15.93
2023-02-20T09:58:21.483Z,14.73
2023-02-20T10:00:48.385Z,13.95
2023-02-20T10:03:30.599Z,12.98
2023-02-20T10:05:56.972Z,13.82
2023-02-20T10:08:23.631Z,13.48
2023-02-20T10:10:51.304Z,13.95
2023-02-20T10:13:29.723Z,17.90
2023-02-20T10:16:00.832Z,13.57
2023-02-20T10:18:47.379Z,11.77
2023-02-20T10:21:28.735Z,13.07
2023-02-20T10:24:13.563Z,10.80
2023-02-20T10:26:44.180Z,12.27
2023-02-20T10:29:22.654Z,11.87
2023-02-20T10:32:01.822Z,10.63
2023-02-20T10:34:37.638Z,10.68
2023-02-20T10:37:10.342Z,10.68
2023-02-20T10:39:38.573Z,13.95
2023-02-20T10:42:14.273Z,10.95
2023-02-20T10:45:06.996Z,13.82
2023-02-20T10:47:36.451Z,11.43
2023-02-20T10:50:05.607Z,13.93
2023-02-20T10:52:36.936Z,12.55
2023-02-20T10:55:12.454Z,17.85
2023-02-20T10:57:45.449Z,12.73
2023-02-20T11:00:22.511Z,14.30
2023-02-20T11:02:53.070Z,13.13
2023-02-20T11:05:20.876Z,15.15
2023-02-20T11:07:48.267Z,14.68
2023-02-20T11:10:14.584Z,15.73
2023-02-20T11:12:42.958Z,16.75
2023-02-20T11:15:14.323Z,15.57
2023-02-20T11:17:41.655Z,16.10
2023-02-20T11:20:26.645Z,14.80
2023-02-20T11:22:53.182Z,16.05
2023-02-20T11:25:29.838Z,14.63
2023-02-20T11:27:57.952Z,18.05
2023-02-20T11:30:32.347Z,15.63
2023-02-20T11:33:03.822Z,13.65
2023-02-20T11:35:33.307Z,16.15
2023-02-20T11:38:14.953Z,15.20
2023-02-20T11:43:27.163Z,17.35
2023-02-20T11:46:12.428Z,17.70
2023-02-20T11:48:40.797Z,15.25
2023-02-20T11:51:27.065Z,15.52
2023-02-20T11:54:06.245Z,19.00
2023-02-20T11:56:32.472Z,15.40
2023-02-20T11:59:13.668Z,14.52
2023-02-20T12:01:41.811Z,14.23
2023-02-20T12:04:18.709Z,15.80
2023-02-20T12:06:45.074Z,14.48
2023-02-20T12:09:12.837Z,12.30
2023-02-20T12:11:39.146Z,14.95
2023-02-20T12:14:13.085Z,12.15
2023-02-20T12:16:39.333Z,14.55
2023-02-20T12:19:05.547Z,15.45
2023-02-20T12:21:31.738Z,13.68
2023-02-20T12:24:09.486Z,16.48
2023-02-20T12:26:42.472Z,15.80
2023-02-20T12:29:11.803Z,14.45
2023-02-20T12:31:41.196Z,15.93
2023-02-20T12:34:26.144Z,18.23
2023-02-20T12:37:01.932Z,14.15
2023-02-20T12:39:48.386Z,18.02
2023-02-20T12:42:22.574Z,16.13
2023-02-20T12:44:48.743Z,14.35
2023-02-20T12:47:23.981Z,19.63
2023-02-20T12:49:55.216Z,17.50
2023-02-20T12:52:28.411Z,17.83
2023-02-20T12:55:00.321Z,17.20
2023-02-20T12:57:33.856Z,17.05
2023-02-20T13:00:02.117Z,17.23
2023-02-20T13:02:41.795Z,16.33
2023-02-20T13:05:12.256Z,17.33
2023-02-20T13:07:51.914Z,15.05
2023-02-20T13:10:22.014Z,17.20
2023-02-20T13:12:49.392Z,15.15
2023-02-20T13:15:34.554Z,16.98
2023-02-20T13:18:06.886Z,17.05
2023-02-20T13:20:52.427Z,17.38
2023-02-20T13:23:18.601Z,20.25
2023-02-20T13:25:48.674Z,19.80
2023-02-20T13:28:21.106Z,18.85
2023-02-20T13:31:13.930Z,17.35
2023-02-20T13:33:41.749Z,18.00
2023-02-20T13:36:36.846Z,16.65
2023-02-20T13:39:21.286Z,18.58
2023-02-20T13:41:53.363Z,18.52
2023-02-20T13:44:40.074Z,20.70
2023-02-20T13:47:22.124Z,22.77
2023-02-20T13:49:57.397Z,18.55
2023-02-20T13:52:30.717Z,24.25
2023-02-20T13:54:58.597Z,21.27
2023-02-20T13:57:29.793Z,19.27
2023-02-20T13:59:56.002Z,19.48
2023-02-20T14:02:30.229Z,20.70
2023-02-20T14:04:58.227Z,19.80
2023-02-20T14:07:38.054Z,23.33
2023-02-20T14:10:06.206Z,20.35
2023-02-20T14:12:33.458Z,20.67
2023-02-20T14:15:02.447Z,23.13
2023-02-20T14:17:28.648Z,20.63
2023-02-20T14:20:08.472Z,19.35
2023-02-20T14:22:39.833Z,20.80
2023-02-20T14:25:12.029Z,19.27
2023-02-20T14:27:39.327Z,17.83
2023-02-20T14:30:07.219Z,20.45
2023-02-20T14:32:34.048Z,16.58
2023-02-20T14:35:11.488Z,20.17
2023-02-20T14:37:44.785Z,16.60
2023-02-20T14:40:43.554Z,18.77
2023-02-20T14:43:14.461Z,16.33
2023-02-20T14:45:40.979Z,19.80
2023-02-20T14:48:21.042Z,16.75
2023-02-20T14:50:47.261Z,20.33
2023-02-20T14:53:15.622Z,16.60
2023-02-20T14:55:41.864Z,18.17
2023-02-20T14:58:10.884Z,15.85
2023-02-20T15:00:37.977Z,18.17
2023-02-20T15:03:30.634Z,17.98
2023-02-20T15:06:04.411Z,16.77
2023-02-20T15:08:35.833Z,18.63
2023-02-20T15:11:12.967Z,19.02
2023-02-20T15:13:44.269Z,15.65
2023-02-20T15:16:10.438Z,19.98
2023-02-20T15:18:41.319Z,17.63
2023-02-20T15:21:07.753Z,17.25
2023-02-20T15:23:37.099Z,13.80
2023-02-20T15:26:21.881Z,15.43
2023-02-20T15:28:48.113Z,14.07
2023-02-20T15:31:21.485Z,16.00
2023-02-20T15:33:52.346Z,15.95
2023-02-20T15:36:21.958Z,15.27
2023-02-20T15:38:48.259Z,16.13
2023-02-20T15:41:14.866Z,15.88
2023-02-20T15:43:51.135Z,15.77
2023-02-20T15:46:18.389Z,20.42
2023-02-20T15:48:45.199Z,17.90
2023-02-20T15:51:12.022Z,17.88
2023-02-20T15:53:38.537Z,20.00
2023-02-20T15:56:05.309Z,15.60
2023-02-20T15:58:35.393Z,18.15
2023-02-20T16:01:01.968Z,19.58
2023-02-20T16:03:31.881Z,22.00
2023-02-20T16:06:00.823Z,21.35
2023-02-20T16:08:27.749Z,18.65
2023-02-20T16:10:55.087Z,17.52
2023-02-20T16:13:21.266Z,19.33
2023-02-20T16:15:47.497Z,18.35
2023-02-20T16:18:13.741Z,16.85
2023-02-20T16:20:40.047Z,18.30
2023-02-20T16:23:07.980Z,19.60
2023-02-20T16:25:34.529Z,17.85
2023-02-20T16:28:00.814Z,19.10
2023-02-20T16:30:33.582Z,20.58
2023-02-20T16:33:00.312Z,18.05
2023-02-20T16:35:26.656Z,19.13
2023-02-20T16:37:53.538Z,17.05
2023-02-20T16:40:19.834Z,18.38
2023-02-20T16:42:46.253Z,21.65
2023-02-20T16:45:12.468Z,18.23
2023-02-20T16:47:38.666Z,17.90
2023-02-20T16:50:07.250Z,18.17
2023-02-20T16:52:37.537Z,15.90
2023-02-20T16:55:05.333Z,16.20
2023-02-20T16:57:31.524Z,14.93
2023-02-20T16:59:59.364Z,14.40
2023-02-20T17:02:29.947Z,15.05
2023-02-20T17:04:56.668Z,16.40
2023-02-20T17:07:23.388Z,15.02
2023-02-20T17:09:49.978Z,13.35
2023-02-20T17:12:18.493Z,17.10
2023-02-20T17:14:45.628Z,19.27
2023-02-20T17:17:12.247Z,15.18
2023-02-20T17:19:38.877Z,17.75
2023-02-20T17:22:05.401Z,16.35
2023-02-20T17:24:32.871Z,17.42
2023-02-20T17:26:59.897Z,17.42
2023-02-20T17:29:27.090Z,15.82
2023-02-20T17:31:54.226Z,14.82
2023-02-20T17:34:20.571Z,18.85
2023-02-20T17:36:49.717Z,17.20
2023-02-20T17:39:22.815Z,15.40
2023-02-20T17:41:49.872Z,15.75
2023-02-20T17:44:17.773Z,19.00
2023-02-20T17:46:44.200Z,13.30
2023-02-20T17:49:11.177Z,14.02
2023-02-20T17:51:37.379Z,17.88
2023-02-20T17:54:03.721Z,16.05
2023-02-20T17:56:29.968Z,18.25
2023-02-20T17:58:56.221Z,16.83
2023-02-20T18:01:27.157Z,14.85
2023-02-20T18:03:55.132Z,19.48
2023-02-20T18:06:21.430Z,17.65
2023-02-20T18:08:49.420Z,16.52
2023-02-20T18:11:16.019Z,14.88
2023-02-20T18:13:42.249Z,14.05
2023-02-20T18:16:08.531Z,15.93
2023-02-20T18:18:34.821Z,17.83
2023-02-20T18:21:01.634Z,14.88
2023-02-20T18:23:27.818Z,14.27
2023-02-20T18:25:55.634Z,14.02
2023-02-20T18:28:21.829Z,18.75
2023-02-20T18:30:48.181Z,16.42
2023-02-20T18:33:14.436Z,16.98
2023-02-20T18:35:40.662Z,17.02
2023-02-20T18:38:06.881Z,14.88
2023-02-20T18:40:33.200Z,17.30
2023-02-20T18:42:59.444Z,15.15
2023-02-20T18:45:25.640Z,16.77
2023-02-20T18:47:52.392Z,16.85
2023-02-20T18:50:19.759Z,16.33
2023-02-20T18:52:47.347Z,16.65
2023-02-20T18:55:17.458Z,15.65
2023-02-20T18:57:47.067Z,15.30
2023-02-20T19:00:23.968Z,16.83
2023-02-20T19:02:50.899Z,22.17
2023-02-20T19:05:17.519Z,16.80
2023-02-20T19:07:44.203Z,20.98
2023-02-20T19:10:14.455Z,18.42
2023-02-20T19:12:40.876Z,17.15
2023-02-20T19:15:07.669Z,16.67
2023-02-20T19:17:34.211Z,17.85
2023-02-20T19:20:01.127Z,15.88
2023-02-20T19:22:27.981Z,15.35
2023-02-20T19:24:56.624Z,18.10
2023-02-20T19:27:23.950Z,19.75
2023-02-20T19:29:50.497Z,21.13
2023-02-20T19:32:17.817Z,18.02
2023-02-20T19:34:44.091Z,18.95
2023-02-20T19:37:10.415Z,23.48
2023-02-20T19:39:36.651Z,20.67
2023-02-20T19:42:02.883Z,22.35
2023-02-20T19:44:29.176Z,23.30
2023-02-20T19:46:55.416Z,22.25
2023-02-20T19:49:22.641Z,22.38
2023-02-20T19:51:50.636Z,25.85
2023-02-20T19:54:17.778Z,23.90
2023-02-20T19:56:48.388Z,29.80
2023-02-20T19:59:14.678Z,25.80
2023-02-20T20:01:40.990Z,25.30
2023-02-20T20:04:07.211Z,32.72
2023-02-20T20:06:33.407Z,29.77
2023-02-20T20:09:13.552Z,29.17
2023-02-20T20:11:42.810Z,33.47
2023-02-20T20:14:09.220Z,34.08
2023-02-20T20:16:40.560Z,30.98
2023-02-20T20:19:06.899Z,27.98
2023-02-20T20:21:33.423Z,31.52
2023-02-20T20:23:59.827Z,33.50
2023-02-20T20:26:27.423Z,30.23
2023-02-20T20:28:54.018Z,29.92
2023-02-20T20:31:21.117Z,31.02
2023-02-20T20:33:47.366Z,30.17
2023-02-20T20:36:13.996Z,30.95
2023-02-20T20:38:40.271Z,31.42
2023-02-20T20:41:06.478Z,27.67
2023-02-20T20:43:32.719Z,34.95
2023-02-20T20:45:59.032Z,28.30
2023-02-20T20:48:25.254Z,28.38
2023-02-20T20:50:51.466Z,25.30
2023-02-20T20:53:17.665Z,28.33
2023-02-20T20:55:43.865Z,27.13
2023-02-20T20:58:10.243Z,28.35
2023-02-20T21:00:37.065Z,24.58
2023-02-20T21:03:04.646Z,32.33
2023-02-20T21:05:31.730Z,27.75
2023-02-20T21:07:58.890Z,29.38
2023-02-20T21:10:25.350Z,28.70
2023-02-20T21:12:51.968Z,25.42
2023-02-20T21:15:18.575Z,26.40
2023-02-20T21:17:44.812Z,25.77
2023-02-20T21:20:15.671Z,26.30
2023-02-20T21:22:42.058Z,26.13
2023-02-20T21:25:08.738Z,26.67
2023-02-20T21:27:35.016Z,29.13
2023-02-20T21:30:01.384Z,24.55
2023-02-20T21:32:29.683Z,24.60
2023-02-20T21:34:56.386Z,24.75
2023-02-20T21:37:22.821Z,24.83
2023-02-20T21:39:49.068Z,24.73
2023-02-20T21:42:34.267Z,25.45
2023-02-20T21:45:00.491Z,26.55
2023-02-20T21:47:26.758Z,24.15
2023-02-20T21:49:52.964Z,25.50
2023-02-20T21:52:19.230Z,28.90
2023-02-20T21:54:49.552Z,26.70
2023-02-20T21:57:16.213Z,25.60
2023-02-20T21:59:42.443Z,25.13
2023-02-20T22:02:14.871Z,27.23
2023-02-20T22:04:41.040Z,29.90
2023-02-20T22:07:25.958Z,24.95
2023-02-20T22:10:11.104Z,27.60
2023-02-20T22:12:56.190Z,30.85
2023-02-20T22:15:40.946Z,28.60
2023-02-20T22:18:26.124Z,32.88
2023-02-20T22:21:11.038Z,29.88
2023-02-20T22:23:55.836Z,32.67
2023-02-20T22:26:40.688Z,30.10
2023-02-20T22:29:25.768Z,28.65
2023-02-20T22:32:10.553Z,27.30
2023-02-20T22:35:09.230Z,28.63
2023-02-20T22:37:56.353Z,28.55
2023-02-20T22:40:41.635Z,24.08
2023-02-20T22:43:26.424Z,30.85
2023-02-20T22:46:11.409Z,33.45
2023-02-20T22:48:56.509Z,34.10
2023-02-20T22:51:41.301Z,31.80
2023-02-20T22:54:26.500Z,28.63
2023-02-20T22:57:11.205Z,29.40
2023-02-20T22:59:55.868Z,30.45
2023-02-20T23:02:40.917Z,33.28
2023-02-20T23:05:25.828Z,33.70
2023-02-20T23:08:10.585Z,34.20
2023-02-20T23:10:55.723Z,31.00
2023-02-20T23:13:40.781Z,34.00
2023-02-20T23:16:25.503Z,35.00
2023-02-20T23:19:10.232Z,34.95
2023-02-20T23:21:55.239Z,32.35
2023-02-20T23:24:40.265Z,34.15
2023-02-20T23:27:25.048Z,35.10
2023-02-20T23:30:10.472Z,32.30
2023-02-20T23:32:55.537Z,33.60
2023-02-20T23:35:41.390Z,34.20
2023-02-20T23:38:26.547Z,35.53
2023-02-20T23:41:11.717Z,33.13
2023-02-20T23:43:56.896Z,36.15
2023-02-20T23:46:41.953Z,31.83
2023-02-20T23:49:26.972Z,32.40
2023-02-20T23:52:16.675Z,35.15
2023-02-20T23:55:02.117Z,35.67
2023-02-20T23:57:47.195Z,37.10
